createdAt,value
2018-10-11T00:00:18.030Z,17.83
2018-10-11T00:10:21.416Z,17.90
2018-10-11T00:20:24.809Z,17.27
2018-10-11T00:30:28.242Z,17.50
2018-10-11T00:40:31.640Z,16.97
2018-10-11T00:50:40.960Z,16.77
2018-10-11T01:00:44.362Z,16.27
2018-10-11T01:10:47.736Z,17.27
2018-10-11T01:20:51.321Z,17.27
2018-10-11T01:31:00.152Z,16.67
2018-10-11T01:41:04.108Z,17.33
2018-10-11T01:51:09.929Z,17.73
2018-10-11T02:01:14.301Z,17.40
2018-10-11T02:11:17.679Z,17.17
2018-10-11T02:21:21.123Z,17.23
2018-10-11T02:31:24.853Z,16.70
2018-10-11T02:41:28.219Z,17.10
2018-10-11T02:51:31.595Z,17.30
2018-10-11T03:01:35.452Z,17.23
2018-10-11T03:11:38.950Z,17.10
2018-10-11T03:21:42.403Z,17.33
2018-10-11T03:31:45.794Z,17.77
2018-10-11T03:41:49.186Z,17.13
2018-10-11T03:51:53.138Z,17.60
2018-10-11T04:01:56.564Z,17.57
2018-10-11T04:12:00.069Z,16.60
2018-10-11T04:22:03.979Z,17.50
2018-10-11T04:32:08.293Z,17.53
2018-10-11T04:42:11.824Z,16.83
2018-10-11T04:52:15.252Z,18.02
2018-10-11T05:02:18.790Z,17.30
2018-10-11T05:12:22.187Z,17.00
2018-10-11T05:22:25.714Z,17.15
2018-10-11T05:32:29.217Z,15.97
2018-10-11T05:42:32.683Z,17.17
2018-10-11T05:52:36.980Z,17.13
2018-10-11T06:02:45.863Z,17.60
2018-10-11T06:12:49.292Z,17.90
2018-10-11T06:22:53.462Z,18.83
2018-10-11T06:32:57.193Z,19.37
2018-10-11T06:43:00.638Z,18.20
2018-10-11T06:53:04.214Z,18.57
2018-10-11T07:03:08.280Z,19.27
2018-10-11T07:13:11.653Z,19.97
2018-10-11T07:23:15.295Z,19.73
2018-10-11T07:33:18.801Z,18.50
2018-10-11T07:43:22.232Z,18.03
2018-10-11T07:53:25.613Z,16.40
2018-10-11T08:03:29.006Z,16.87
2018-10-11T08:13:32.535Z,15.63
2018-10-11T08:23:37.025Z,16.23
2018-10-11T08:33:40.603Z,15.73
2018-10-11T08:43:44.205Z,15.00
2018-10-11T08:53:47.821Z,15.20
2018-10-11T09:03:51.445Z,13.23
2018-10-11T09:13:54.741Z,13.17
2018-10-11T09:23:58.249Z,14.90
2018-10-11T09:34:01.634Z,14.57
2018-10-11T09:44:05.070Z,13.43
2018-10-11T09:54:09.123Z,13.93
2018-10-11T10:04:12.567Z,12.07
2018-10-11T10:14:16.156Z,11.40
2018-10-11T10:24:19.574Z,10.88
2018-10-11T10:34:22.912Z,10.33
2018-10-11T10:44:26.494Z,10.20
2018-10-11T10:54:31.239Z,10.32
2018-10-11T11:04:34.644Z,9.43
2018-10-11T11:14:38.789Z,11.47
2018-10-11T11:24:42.271Z,12.17
2018-10-11T11:34:45.761Z,11.17
2018-10-11T11:44:49.153Z,10.97
2018-10-11T11:54:53.606Z,10.50
2018-10-11T12:04:57.090Z,9.97
2018-10-11T12:15:00.461Z,9.87
2018-10-11T12:25:04.643Z,10.50
2018-10-11T12:35:08.020Z,8.97
2018-10-11T12:45:12.478Z,9.60
2018-10-11T12:55:15.831Z,9.47
2018-10-11T13:05:19.219Z,9.20
2018-10-11T13:15:23.000Z,7.77
2018-10-11T13:25:26.419Z,7.13
2018-10-11T13:35:30.064Z,6.67
2018-10-11T13:45:33.524Z,6.77
2018-10-11T13:55:37.115Z,6.33
2018-10-11T14:05:44.493Z,6.13
2018-10-11T14:15:47.897Z,6.87
2018-10-11T14:25:51.271Z,7.03
2018-10-11T14:35:54.678Z,5.57
2018-10-11T14:45:58.069Z,5.33
2018-10-11T14:56:03.055Z,6.10
2018-10-11T15:06:06.602Z,5.33
2018-10-11T15:16:10.111Z,6.83
2018-10-11T15:26:13.498Z,7.20
2018-10-11T15:36:17.029Z,6.63
2018-10-11T15:46:20.853Z,6.90
2018-10-11T15:56:24.330Z,7.17
2018-10-11T16:06:28.785Z,7.17
2018-10-11T16:16:32.375Z,7.40
2018-10-11T16:26:36.444Z,7.00
2018-10-11T16:36:40.594Z,7.22
2018-10-11T16:46:44.820Z,7.27
2018-10-11T16:56:49.269Z,8.23
2018-10-11T17:06:52.639Z,8.13
2018-10-11T17:16:56.066Z,8.30
2018-10-11T17:26:59.622Z,9.33
2018-10-11T17:37:03.627Z,9.43
2018-10-11T17:47:07.406Z,10.23
2018-10-11T17:57:11.007Z,9.47
2018-10-11T18:07:15.248Z,9.50
2018-10-11T18:17:18.652Z,9.83
2018-10-11T18:27:21.999Z,10.23
2018-10-11T18:37:25.375Z,9.83
2018-10-11T18:47:29.308Z,10.97
2018-10-11T18:57:33.613Z,9.93
2018-10-11T19:07:37.083Z,9.40
2018-10-11T19:17:40.569Z,10.77
2018-10-11T19:27:44.040Z,9.70
2018-10-11T19:37:47.638Z,9.20
2018-10-11T19:47:51.059Z,10.57
2018-10-11T19:57:54.435Z,10.33
2018-10-11T20:07:57.799Z,9.50
2018-10-11T20:18:03.902Z,9.77
2018-10-11T20:28:04.566Z,10.32
2018-10-11T20:38:08.247Z,10.37
2018-10-11T20:48:11.771Z,10.87
2018-10-11T20:58:19.726Z,11.25
2018-10-11T21:08:23.164Z,11.70
2018-10-11T21:18:26.803Z,12.50
2018-10-11T21:28:30.177Z,11.83
2018-10-11T21:38:33.639Z,12.10
2018-10-11T21:48:37.028Z,12.73
2018-10-11T21:58:41.048Z,13.53
2018-10-11T22:08:44.881Z,13.35
2018-10-11T22:18:48.321Z,12.67
2018-10-11T22:28:51.779Z,12.93
2018-10-11T22:38:55.704Z,12.10
2018-10-11T22:48:59.089Z,13.23
2018-10-11T22:59:02.455Z,12.63
2018-10-11T23:09:06.567Z,11.87
2018-10-11T23:19:10.490Z,11.43
2018-10-11T23:29:14.089Z,11.03
2018-10-11T23:39:18.616Z,10.80
2018-10-11T23:49:22.075Z,11.43
2018-10-11T23:59:25.805Z,10.32
